createdAt,value
2023-04-20T00:00:17.624Z,9.50
2023-04-20T00:02:23.157Z,9.50
2023-04-20T00:04:26.163Z,9.50
2023-04-20T00:06:32.879Z,9.40
2023-04-20T00:08:44.004Z,9.40
2023-04-20T00:10:47.307Z,9.40
2023-04-20T00:12:59.611Z,9.30
2023-04-20T00:15:02.521Z,9.30
2023-04-20T00:17:08.519Z,9.00
2023-04-20T00:19:14.673Z,9.20
2023-04-20T00:21:17.799Z,9.10
2023-04-20T00:23:20.876Z,9.10
2023-04-20T00:25:23.783Z,9.10
2023-04-20T00:27:26.748Z,9.00
2023-04-20T00:29:29.717Z,9.00
2023-04-20T00:31:33.790Z,9.00
2023-04-20T00:33:36.883Z,9.00
2023-04-20T00:35:44.028Z,9.00
2023-04-20T00:37:46.909Z,9.00
2023-04-20T00:39:49.771Z,9.00
2023-04-20T00:41:52.744Z,9.00
2023-04-20T00:43:58.844Z,9.00
2023-04-20T00:46:03.601Z,9.00
2023-04-20T00:48:07.517Z,9.00
2023-04-20T00:50:11.670Z,9.00
2023-04-20T00:52:16.785Z,9.00
2023-04-20T00:54:23.586Z,9.00
2023-04-20T00:56:26.586Z,9.00
2023-04-20T00:58:29.712Z,8.90
2023-04-20T01:00:39.450Z,8.90
2023-04-20T01:02:42.471Z,8.90
2023-04-20T01:04:48.397Z,8.90
2023-04-20T01:06:53.154Z,8.90
2023-04-20T01:08:58.751Z,8.80
2023-04-20T01:11:01.668Z,8.80
2023-04-20T01:13:04.683Z,8.80
2023-04-20T01:15:10.645Z,8.80
2023-04-20T01:17:15.151Z,8.80
2023-04-20T01:19:21.578Z,8.70
2023-04-20T01:21:26.885Z,8.70
2023-04-20T01:23:32.715Z,8.70
2023-04-20T01:25:39.881Z,8.60
2023-04-20T01:27:46.644Z,8.60
2023-04-20T01:29:49.602Z,8.60
2023-04-20T01:31:52.591Z,8.50
2023-04-20T01:33:57.693Z,8.50
2023-04-20T01:36:00.969Z,8.50
2023-04-20T01:38:05.373Z,8.40
2023-04-20T01:40:12.382Z,8.40
2023-04-20T01:42:15.282Z,8.40
2023-04-20T01:44:18.453Z,8.40
2023-04-20T01:46:22.316Z,8.40
2023-04-20T01:48:25.188Z,8.50
2023-04-20T01:50:28.081Z,8.30
2023-04-20T01:52:31.034Z,8.30
2023-04-20T01:54:33.898Z,8.20
2023-04-20T01:56:44.051Z,8.20
2023-04-20T01:58:47.187Z,8.20
2023-04-20T02:00:51.073Z,8.20
2023-04-20T02:02:56.185Z,8.20
2023-04-20T02:04:59.122Z,8.20
2023-04-20T02:07:06.411Z,8.20
2023-04-20T02:09:11.309Z,8.10
2023-04-20T02:11:15.857Z,8.20
2023-04-20T02:13:23.165Z,8.10
2023-04-20T02:15:28.176Z,8.10
2023-04-20T02:17:32.750Z,8.10
2023-04-20T02:19:36.182Z,8.10
2023-04-20T02:21:39.174Z,8.10
2023-04-20T02:23:42.154Z,8.00
2023-04-20T02:25:46.398Z,8.00
2023-04-20T02:27:49.426Z,8.00
2023-04-20T02:29:55.354Z,8.00
2023-04-20T02:31:58.378Z,7.90
2023-04-20T02:34:01.206Z,7.90
2023-04-20T02:36:04.203Z,7.90
2023-04-20T02:38:08.562Z,7.90
2023-04-20T02:40:15.493Z,7.90
2023-04-20T02:42:18.462Z,7.80
2023-04-20T02:44:22.129Z,7.80
2023-04-20T02:46:28.537Z,7.80
2023-04-20T02:48:31.596Z,7.80
2023-04-20T02:50:38.312Z,7.70
2023-04-20T02:52:49.440Z,7.70
2023-04-20T02:54:52.379Z,7.70
2023-04-20T02:56:57.320Z,7.60
2023-04-20T02:59:00.947Z,7.60
2023-04-20T03:01:14.193Z,7.50
2023-04-20T03:03:19.994Z,7.50
2023-04-20T03:05:23.518Z,7.50
2023-04-20T03:07:26.548Z,7.40
2023-04-20T03:09:34.613Z,7.40
2023-04-20T03:11:50.278Z,7.30
2023-04-20T03:14:24.317Z,7.30
2023-04-20T03:16:32.661Z,7.30
2023-04-20T03:18:38.109Z,7.30
2023-04-20T03:20:42.726Z,7.20
2023-04-20T03:22:45.599Z,7.20
2023-04-20T03:24:50.236Z,7.20
2023-04-20T03:27:15.682Z,7.20
2023-04-20T03:29:31.098Z,7.20
2023-04-20T03:31:34.078Z,7.20
2023-04-20T03:33:38.747Z,7.20
2023-04-20T03:35:43.011Z,7.20
2023-04-20T03:37:45.880Z,7.20
2023-04-20T03:39:48.846Z,7.20
2023-04-20T03:41:55.896Z,7.20
2023-04-20T03:43:58.775Z,7.10
2023-04-20T03:46:01.755Z,7.20
2023-04-20T03:48:06.574Z,7.10
2023-04-20T03:50:11.338Z,7.20
2023-04-20T03:52:15.617Z,7.20
2023-04-20T03:54:18.732Z,7.20
2023-04-20T03:56:21.768Z,7.20
2023-04-20T03:58:25.580Z,7.20
2023-04-20T04:00:39.262Z,7.20
2023-04-20T04:02:46.888Z,7.20
2023-04-20T04:04:54.746Z,7.20
2023-04-20T04:07:03.961Z,7.20
2023-04-20T04:09:11.396Z,7.20
2023-04-20T04:11:17.512Z,7.20
2023-04-20T04:13:20.806Z,7.20
2023-04-20T04:15:24.345Z,7.20
2023-04-20T04:17:39.242Z,7.20
2023-04-20T04:19:43.520Z,7.20
2023-04-20T04:21:46.536Z,7.20
2023-04-20T04:23:51.996Z,7.20
2023-04-20T04:26:17.691Z,7.20
2023-04-20T04:28:20.722Z,7.20
2023-04-20T04:30:32.485Z,7.10
2023-04-20T04:32:36.077Z,7.20
2023-04-20T04:34:41.619Z,7.20
2023-04-20T04:36:45.935Z,7.20
2023-04-20T04:38:53.890Z,7.20
2023-04-20T04:40:57.972Z,7.20
2023-04-20T04:43:03.933Z,7.20
2023-04-20T04:45:10.176Z,7.20
2023-04-20T04:47:17.966Z,7.20
2023-04-20T04:49:23.640Z,7.20
2023-04-20T04:51:26.554Z,7.20
2023-04-20T04:53:34.131Z,7.20
2023-04-20T04:55:39.860Z,7.20
2023-04-20T04:57:46.483Z,7.20
2023-04-20T04:59:49.418Z,7.30
2023-04-20T05:01:54.687Z,7.30
2023-04-20T05:03:57.912Z,7.20
2023-04-20T05:06:01.330Z,7.30
2023-04-20T05:08:04.468Z,7.30
2023-04-20T05:10:11.294Z,7.30
2023-04-20T05:12:16.282Z,7.30
2023-04-20T05:14:19.194Z,7.30
2023-04-20T05:16:22.172Z,7.30
2023-04-20T05:18:30.182Z,7.30
2023-04-20T05:20:33.056Z,7.30
2023-04-20T05:22:38.858Z,7.30
2023-04-20T05:24:42.211Z,7.40
2023-04-20T05:26:49.007Z,7.30
2023-04-20T05:28:53.214Z,7.40
2023-04-20T05:30:56.071Z,7.40
2023-04-20T05:33:06.215Z,7.40
2023-04-20T05:35:10.004Z,7.40
2023-04-20T05:37:13.300Z,7.40
2023-04-20T05:39:16.606Z,7.40
2023-04-20T05:41:19.793Z,7.50
2023-04-20T05:43:23.696Z,7.50
2023-04-20T05:45:33.089Z,7.50
2023-04-20T05:47:40.187Z,7.60
2023-04-20T05:49:45.356Z,7.60
2023-04-20T05:51:48.624Z,7.60
2023-04-20T05:53:51.504Z,7.70
2023-04-20T05:55:54.348Z,7.70
2023-04-20T05:57:57.673Z,7.70
2023-04-20T06:00:05.738Z,7.70
2023-04-20T06:02:17.049Z,7.70
2023-04-20T06:04:22.588Z,7.70
2023-04-20T06:06:26.414Z,7.70
2023-04-20T06:08:29.428Z,7.70
2023-04-20T06:10:34.623Z,7.70
2023-04-20T06:12:40.564Z,7.70
2023-04-20T06:14:46.372Z,7.70
2023-04-20T06:16:50.068Z,7.70
2023-04-20T06:18:55.798Z,7.70
2023-04-20T06:21:01.999Z,7.70
2023-04-20T06:23:04.972Z,7.70
2023-04-20T06:25:08.627Z,7.70
2023-04-20T06:27:11.609Z,7.70
2023-04-20T06:29:16.751Z,7.70
2023-04-20T06:31:20.158Z,7.70
2023-04-20T06:33:23.220Z,7.70
2023-04-20T06:35:30.672Z,7.60
2023-04-20T06:37:33.699Z,7.60
2023-04-20T06:39:36.895Z,7.60
2023-04-20T06:41:40.251Z,7.60
2023-04-20T06:43:45.314Z,7.50
2023-04-20T06:45:48.267Z,7.50
2023-04-20T06:47:51.396Z,7.50
2023-04-20T06:49:59.690Z,7.50
2023-04-20T06:52:04.172Z,7.50
2023-04-20T06:54:07.318Z,7.50
2023-04-20T06:56:12.386Z,7.50
2023-04-20T06:58:15.217Z,7.50
2023-04-20T07:00:19.023Z,7.50
2023-04-20T07:02:22.138Z,7.30
2023-04-20T07:04:25.208Z,7.50
2023-04-20T07:06:32.449Z,7.50
2023-04-20T07:08:36.838Z,7.50
2023-04-20T07:10:42.071Z,7.60
2023-04-20T07:12:47.166Z,7.50
2023-04-20T07:14:50.282Z,7.50
2023-04-20T07:16:53.608Z,7.50
2023-04-20T07:18:56.690Z,7.60
2023-04-20T07:21:02.036Z,7.50
2023-04-20T07:23:04.942Z,7.60
2023-04-20T07:25:10.931Z,7.50
2023-04-20T07:27:16.074Z,7.60
2023-04-20T07:29:21.333Z,7.60
2023-04-20T07:31:27.003Z,7.60
2023-04-20T07:33:31.921Z,7.60
2023-04-20T07:35:34.835Z,7.60
2023-04-20T07:37:37.883Z,7.70
2023-04-20T07:39:45.109Z,7.70
2023-04-20T07:41:49.512Z,7.70
2023-04-20T07:43:53.651Z,7.70
2023-04-20T07:45:58.369Z,7.70
2023-04-20T07:48:02.465Z,7.80
2023-04-20T07:50:06.700Z,7.80
2023-04-20T07:52:16.837Z,7.80
2023-04-20T07:54:20.608Z,7.90
2023-04-20T07:56:23.465Z,7.90
2023-04-20T07:58:27.742Z,7.90
2023-04-20T08:00:33.678Z,7.90
2023-04-20T08:02:38.104Z,7.90
2023-04-20T08:04:44.611Z,7.90
2023-04-20T08:06:47.682Z,7.90
2023-04-20T08:08:53.068Z,7.90
2023-04-20T08:10:58.344Z,7.90
2023-04-20T08:13:01.565Z,7.90
2023-04-20T08:15:06.943Z,8.10
2023-04-20T08:17:09.836Z,7.90
2023-04-20T08:19:15.558Z,7.90
2023-04-20T08:21:18.590Z,7.90
2023-04-20T08:23:27.550Z,7.80
2023-04-20T08:25:32.244Z,7.80
2023-04-20T08:27:35.401Z,7.80
2023-04-20T08:29:39.775Z,7.80
2023-04-20T08:31:44.232Z,7.80
2023-04-20T08:33:47.637Z,7.80
2023-04-20T08:35:52.703Z,7.80
2023-04-20T08:37:56.052Z,7.80
2023-04-20T08:39:59.017Z,7.80
2023-04-20T08:42:02.136Z,7.80
2023-04-20T08:44:05.344Z,7.80
2023-04-20T08:46:08.842Z,7.80
2023-04-20T08:48:15.328Z,7.90
2023-04-20T08:50:19.806Z,7.90
2023-04-20T08:52:22.755Z,8.00
2023-04-20T08:54:25.916Z,8.00
2023-04-20T08:56:36.047Z,8.00
2023-04-20T08:58:44.812Z,8.00
2023-04-20T09:00:48.419Z,8.00
2023-04-20T09:02:52.936Z,8.00
2023-04-20T09:05:05.068Z,8.10
2023-04-20T09:07:21.675Z,8.10
2023-04-20T09:09:26.949Z,8.10
2023-04-20T09:11:31.383Z,8.10
2023-04-20T09:13:35.188Z,8.10
2023-04-20T09:15:38.182Z,8.20
2023-04-20T09:17:41.734Z,8.20
2023-04-20T09:19:46.761Z,8.20
2023-04-20T09:21:51.931Z,8.30
2023-04-20T09:23:59.048Z,8.30
2023-04-20T09:26:05.724Z,8.30
2023-04-20T09:28:13.099Z,8.30
2023-04-20T09:30:16.173Z,8.40
2023-04-20T09:32:23.411Z,8.40
2023-04-20T09:34:26.648Z,8.40
2023-04-20T09:36:40.316Z,8.40
2023-04-20T09:38:44.601Z,8.50
2023-04-20T09:40:47.612Z,8.60
2023-04-20T09:42:52.130Z,8.60
2023-04-20T09:44:55.588Z,8.60
2023-04-20T09:46:59.398Z,8.70
2023-04-20T09:49:06.019Z,8.70
2023-04-20T09:51:09.168Z,8.80
2023-04-20T09:53:12.542Z,8.80
2023-04-20T09:55:18.816Z,8.80
2023-04-20T09:57:22.567Z,8.90
2023-04-20T09:59:27.141Z,8.90
2023-04-20T10:01:33.429Z,9.00
2023-04-20T10:03:36.772Z,9.00
2023-04-20T10:05:40.991Z,9.10
2023-04-20T10:07:46.956Z,9.10
2023-04-20T10:09:49.890Z,9.10
2023-04-20T10:11:56.217Z,9.20
2023-04-20T10:14:16.378Z,9.20
2023-04-20T10:16:19.814Z,9.30
2023-04-20T10:18:24.850Z,9.30
2023-04-20T10:20:30.661Z,9.40
2023-04-20T10:22:34.040Z,9.40
2023-04-20T10:24:40.374Z,9.50
2023-04-20T10:26:46.116Z,9.50
2023-04-20T10:28:52.742Z,9.50
2023-04-20T10:30:56.272Z,9.60
2023-04-20T10:33:07.127Z,9.60
2023-04-20T10:35:13.921Z,9.60
2023-04-20T10:37:16.963Z,9.60
2023-04-20T10:39:22.629Z,9.60
2023-04-20T10:41:26.014Z,9.70
2023-04-20T10:43:29.709Z,9.70
2023-04-20T10:45:38.412Z,9.80
2023-04-20T10:47:41.735Z,9.80
2023-04-20T10:49:48.266Z,9.80
2023-04-20T10:51:52.055Z,9.80
2023-04-20T10:54:04.928Z,9.80
2023-04-20T10:56:08.310Z,9.90
2023-04-20T10:58:22.370Z,9.90
2023-04-20T11:00:27.852Z,9.90
2023-04-20T11:02:32.459Z,9.90
2023-04-20T11:04:37.046Z,10.00
2023-04-20T11:06:41.045Z,10.00
2023-04-20T11:08:44.501Z,10.10
2023-04-20T11:10:47.471Z,10.10
2023-04-20T11:12:51.020Z,10.10
2023-04-20T11:14:55.296Z,10.20
2023-04-20T11:16:58.492Z,10.20
2023-04-20T11:19:03.866Z,10.20
2023-04-20T11:21:07.069Z,10.20
2023-04-20T11:23:10.032Z,10.30
2023-04-20T11:25:17.986Z,10.30
2023-04-20T11:27:22.079Z,10.30
2023-04-20T11:29:29.770Z,10.30
2023-04-20T11:31:33.066Z,10.30
2023-04-20T11:33:38.800Z,10.30
2023-04-20T11:35:45.475Z,10.30
2023-04-20T11:37:50.964Z,10.40
2023-04-20T11:40:00.821Z,10.40
2023-04-20T11:42:03.972Z,10.40
2023-04-20T11:44:07.565Z,10.40
2023-04-20T11:46:18.007Z,10.40
2023-04-20T11:48:22.515Z,10.50
2023-04-20T11:50:28.705Z,10.50
2023-04-20T11:52:34.248Z,10.50
2023-04-20T11:54:37.185Z,10.60
2023-04-20T11:56:42.444Z,10.60
2023-04-20T11:58:48.606Z,10.70
2023-04-20T12:00:51.751Z,10.70
2023-04-20T12:02:54.851Z,10.80
2023-04-20T12:04:58.143Z,10.90
2023-04-20T12:07:02.345Z,11.10
2023-04-20T12:09:07.304Z,11.20
2023-04-20T12:11:10.220Z,11.30
2023-04-20T12:13:13.447Z,11.50
2023-04-20T12:15:16.612Z,11.60
2023-04-20T12:17:19.767Z,11.70
2023-04-20T12:19:22.790Z,11.80
2023-04-20T12:21:25.757Z,11.80
2023-04-20T12:23:28.827Z,11.90
2023-04-20T12:25:33.096Z,12.00
2023-04-20T12:27:35.984Z,12.10
2023-04-20T12:29:39.099Z,12.10
2023-04-20T12:31:42.113Z,12.10
2023-04-20T12:33:45.396Z,12.10
2023-04-20T12:35:49.668Z,12.20
2023-04-20T12:37:52.612Z,12.20
2023-04-20T12:39:57.896Z,12.20
2023-04-20T12:42:03.985Z,12.20
2023-04-20T12:44:12.879Z,12.20
2023-04-20T12:46:15.755Z,12.20
2023-04-20T12:48:20.909Z,12.20
2023-04-20T12:50:23.817Z,12.20
2023-04-20T12:52:26.813Z,12.20
2023-04-20T12:54:29.943Z,12.20
2023-04-20T12:56:36.526Z,12.30
2023-04-20T12:58:42.945Z,12.40
2023-04-20T13:00:46.252Z,12.50
2023-04-20T13:02:52.577Z,12.60
2023-04-20T13:04:56.529Z,12.70
2023-04-20T13:06:59.516Z,12.80
2023-04-20T13:09:04.146Z,12.80
2023-04-20T13:11:22.390Z,12.80
2023-04-20T13:13:26.770Z,12.90
2023-04-20T13:15:39.191Z,12.80
2023-04-20T13:17:45.072Z,12.80
2023-04-20T13:19:49.325Z,12.80
2023-04-20T13:21:54.183Z,12.80
2023-04-20T13:23:58.427Z,12.80
2023-04-20T13:26:02.732Z,12.80
2023-04-20T13:28:14.496Z,12.80
2023-04-20T13:30:23.557Z,12.90
2023-04-20T13:32:28.659Z,12.90
2023-04-20T13:34:31.664Z,12.90
2023-04-20T13:36:36.777Z,12.90
2023-04-20T13:38:48.163Z,13.00
2023-04-20T13:40:55.748Z,13.10
2023-04-20T13:42:58.705Z,13.10
2023-04-20T13:45:01.608Z,13.20
2023-04-20T13:47:04.539Z,13.30
2023-04-20T13:49:13.378Z,13.40
2023-04-20T13:51:17.981Z,13.50
2023-04-20T13:53:21.892Z,13.60
2023-04-20T13:55:26.915Z,13.80
2023-04-20T13:57:31.475Z,13.80
2023-04-20T13:59:35.517Z,13.90
2023-04-20T14:01:38.851Z,14.00
2023-04-20T14:03:44.520Z,14.00
2023-04-20T14:05:51.042Z,14.10
2023-04-20T14:07:54.514Z,14.10
2023-04-20T14:09:59.766Z,14.10
2023-04-20T14:12:03.236Z,14.20
2023-04-20T14:14:08.079Z,14.20
2023-04-20T14:16:13.825Z,14.20
2023-04-20T14:18:16.986Z,14.20
2023-04-20T14:20:19.891Z,14.20
2023-04-20T14:22:24.188Z,14.10
2023-04-20T14:24:27.412Z,14.10
2023-04-20T14:26:32.671Z,14.10
2023-04-20T14:28:36.139Z,14.10
2023-04-20T14:30:39.056Z,14.20
2023-04-20T14:32:42.273Z,14.20
2023-04-20T14:34:45.263Z,14.20
2023-04-20T14:36:48.261Z,14.30
2023-04-20T14:38:55.442Z,14.30
2023-04-20T14:40:58.342Z,14.30
2023-04-20T14:43:01.329Z,14.20
2023-04-20T14:45:06.609Z,14.20
2023-04-20T14:47:09.497Z,14.20
2023-04-20T14:49:12.341Z,14.10
2023-04-20T14:51:16.111Z,14.10
2023-04-20T14:53:20.283Z,14.10
2023-04-20T14:55:27.150Z,14.00
2023-04-20T14:57:32.182Z,14.10
2023-04-20T14:59:37.118Z,14.10
2023-04-20T15:02:01.255Z,14.00
2023-04-20T15:04:05.585Z,14.00
2023-04-20T15:06:09.247Z,14.00
2023-04-20T15:08:12.279Z,14.00
2023-04-20T15:10:22.239Z,13.80
2023-04-20T15:12:26.590Z,13.70
2023-04-20T15:14:29.530Z,13.60
2023-04-20T15:16:33.162Z,13.40
2023-04-20T15:18:38.785Z,13.30
2023-04-20T15:20:43.645Z,13.20
2023-04-20T15:22:46.700Z,13.00
2023-04-20T15:24:49.683Z,12.80
2023-04-20T15:26:52.807Z,12.70
2023-04-20T15:29:01.407Z,12.60
2023-04-20T15:31:08.510Z,12.40
2023-04-20T15:33:11.770Z,12.30
2023-04-20T15:35:16.595Z,12.20
2023-04-20T15:37:22.192Z,12.10
2023-04-20T15:39:25.199Z,12.00
2023-04-20T15:41:28.183Z,11.90
2023-04-20T15:43:33.128Z,11.80
2023-04-20T15:45:37.511Z,11.70
2023-04-20T15:47:42.404Z,11.70
2023-04-20T15:49:47.718Z,11.60
2023-04-20T15:51:54.891Z,11.50
2023-04-20T15:54:01.712Z,11.40
2023-04-20T15:56:05.029Z,11.30
2023-04-20T15:58:08.076Z,11.00
2023-04-20T16:00:12.828Z,11.10
2023-04-20T16:02:18.389Z,11.00
2023-04-20T16:04:21.760Z,10.90
2023-04-20T16:06:24.944Z,10.90
2023-04-20T16:08:29.450Z,10.80
2023-04-20T16:10:32.555Z,10.70
2023-04-20T16:12:38.091Z,10.70
2023-04-20T16:14:41.121Z,10.70
2023-04-20T16:16:43.989Z,10.60
2023-04-20T16:18:48.444Z,10.60
2023-04-20T16:20:53.998Z,10.60
2023-04-20T16:22:58.527Z,10.60
2023-04-20T16:25:04.221Z,10.60
2023-04-20T16:27:07.306Z,10.60
2023-04-20T16:29:10.472Z,10.60
2023-04-20T16:31:13.458Z,10.60
2023-04-20T16:33:18.108Z,10.60
2023-04-20T16:35:23.846Z,10.60
2023-04-20T16:37:27.946Z,10.60
2023-04-20T16:39:33.336Z,10.60
2023-04-20T16:41:36.268Z,10.60
2023-04-20T16:43:40.747Z,10.60
2023-04-20T16:45:46.411Z,10.50
2023-04-20T16:47:51.154Z,10.50
2023-04-20T16:49:54.100Z,10.40
2023-04-20T16:52:00.747Z,10.40
2023-04-20T16:54:06.256Z,10.40
2023-04-20T16:56:12.005Z,10.30
2023-04-20T16:58:14.940Z,10.30
2023-04-20T17:00:20.872Z,10.20
2023-04-20T17:02:25.326Z,10.20
2023-04-20T17:04:29.196Z,10.20
2023-04-20T17:06:37.161Z,10.10
2023-04-20T17:08:44.510Z,10.10
2023-04-20T17:10:47.637Z,10.10
2023-04-20T17:12:54.582Z,10.00
2023-04-20T17:14:59.232Z,10.00
2023-04-20T17:17:02.427Z,9.90
2023-04-20T17:19:06.992Z,9.90
2023-04-20T17:21:12.169Z,9.80
2023-04-20T17:23:16.900Z,9.80
2023-04-20T17:25:21.827Z,9.80
2023-04-20T17:27:26.954Z,9.70
2023-04-20T17:29:36.081Z,9.70
2023-04-20T17:31:38.991Z,9.80
2023-04-20T17:33:43.347Z,9.70
2023-04-20T17:35:46.529Z,9.70
2023-04-20T17:37:49.555Z,9.70
2023-04-20T17:39:52.542Z,9.70
2023-04-20T17:41:58.593Z,9.70
2023-04-20T17:44:01.641Z,9.80
2023-04-20T17:46:07.984Z,9.80
2023-04-20T17:48:10.920Z,9.80
2023-04-20T17:50:16.204Z,9.70
2023-04-20T17:52:19.646Z,9.80
2023-04-20T17:54:26.154Z,9.80
2023-04-20T17:56:29.105Z,9.70
2023-04-20T17:58:36.680Z,9.70
2023-04-20T18:00:39.586Z,9.70
2023-04-20T18:02:42.794Z,9.70
2023-04-20T18:04:46.122Z,9.70
2023-04-20T18:06:54.771Z,9.70
2023-04-20T18:08:58.176Z,9.60
2023-04-20T18:11:02.124Z,9.70
2023-04-20T18:13:06.549Z,9.60
2023-04-20T18:15:13.851Z,9.60
2023-04-20T18:17:16.948Z,9.60
2023-04-20T18:19:20.321Z,9.50
2023-04-20T18:21:23.388Z,9.50
2023-04-20T18:23:29.858Z,9.50
2023-04-20T18:25:34.877Z,9.50
2023-04-20T18:27:38.352Z,9.50
2023-04-20T18:29:41.352Z,9.40
2023-04-20T18:31:46.442Z,9.40
2023-04-20T18:33:49.469Z,9.40
2023-04-20T18:35:52.419Z,9.40
2023-04-20T18:37:55.462Z,9.40
2023-04-20T18:39:58.495Z,9.40
2023-04-20T18:42:02.303Z,9.30
2023-04-20T18:44:06.311Z,9.30
2023-04-20T18:46:09.480Z,9.30
2023-04-20T18:48:13.872Z,9.30
2023-04-20T18:50:20.241Z,9.30
2023-04-20T18:52:23.556Z,9.30
2023-04-20T18:54:28.567Z,9.30
2023-04-20T18:56:32.025Z,9.30
2023-04-20T18:58:35.065Z,9.30
2023-04-20T19:00:39.546Z,9.20
2023-04-20T19:02:42.744Z,9.20
2023-04-20T19:04:49.671Z,9.20
2023-04-20T19:06:54.386Z,9.20
2023-04-20T19:08:57.567Z,9.20
2023-04-20T19:11:03.321Z,9.10
2023-04-20T19:13:06.268Z,9.10
2023-04-20T19:15:10.141Z,9.20
2023-04-20T19:17:15.065Z,9.20
2023-04-20T19:19:17.967Z,9.20
2023-04-20T19:21:22.333Z,9.20
2023-04-20T19:23:26.537Z,9.20
2023-04-20T19:25:29.735Z,9.20
2023-04-20T19:27:32.904Z,9.20
2023-04-20T19:29:45.339Z,9.20
2023-04-20T19:31:48.310Z,9.20
2023-04-20T19:33:51.272Z,9.20
2023-04-20T19:35:54.157Z,9.20
2023-04-20T19:37:58.559Z,9.20
2023-04-20T19:40:01.404Z,9.20
2023-04-20T19:42:06.692Z,9.20
2023-04-20T19:44:14.461Z,9.10
2023-04-20T19:46:17.518Z,9.10
2023-04-20T19:48:22.511Z,9.20
2023-04-20T19:50:25.434Z,9.20
2023-04-20T19:52:32.356Z,9.20
2023-04-20T19:54:36.618Z,9.20
2023-04-20T19:56:42.227Z,9.20
2023-04-20T19:58:47.984Z,9.20
2023-04-20T20:00:51.245Z,9.10
2023-04-20T20:02:56.772Z,9.20
2023-04-20T20:04:59.883Z,9.20
2023-04-20T20:07:02.878Z,9.20
2023-04-20T20:09:07.213Z,9.20
2023-04-20T20:11:11.972Z,9.20
2023-04-20T20:13:17.707Z,9.20
2023-04-20T20:15:23.765Z,9.20
2023-04-20T20:17:26.751Z,9.20
2023-04-20T20:19:29.874Z,9.30
2023-04-20T20:21:33.193Z,9.20
2023-04-20T20:23:36.086Z,9.20
2023-04-20T20:25:38.939Z,9.20
2023-04-20T20:27:43.166Z,9.20
2023-04-20T20:29:46.047Z,9.20
2023-04-20T20:31:50.160Z,9.20
2023-04-20T20:33:54.092Z,9.20
2023-04-20T20:35:58.997Z,9.20
2023-04-20T20:38:06.095Z,9.20
2023-04-20T20:40:14.785Z,9.20
2023-04-20T20:42:17.722Z,9.20
2023-04-20T20:44:22.048Z,9.20
2023-04-20T20:46:25.409Z,9.20
2023-04-20T20:48:28.309Z,9.30
2023-04-20T20:50:31.388Z,9.30
2023-04-20T20:52:34.383Z,9.30
2023-04-20T20:54:37.241Z,9.30
2023-04-20T20:56:40.094Z,9.30
2023-04-20T20:58:42.995Z,9.30
2023-04-20T21:00:53.472Z,9.40
2023-04-20T21:02:58.917Z,9.40
2023-04-20T21:05:02.156Z,9.40
2023-04-20T21:07:05.189Z,9.40
2023-04-20T21:09:09.245Z,9.40
2023-04-20T21:11:15.715Z,9.40
2023-04-20T21:13:18.940Z,9.40
2023-04-20T21:15:24.049Z,9.40
2023-04-20T21:17:29.412Z,9.40
2023-04-20T21:19:32.373Z,9.50
2023-04-20T21:21:35.347Z,9.50
2023-04-20T21:23:38.301Z,9.50
2023-04-20T21:25:42.316Z,9.50
2023-04-20T21:27:45.164Z,9.50
2023-04-20T21:29:50.599Z,9.50
2023-04-20T21:31:53.486Z,9.50
2023-04-20T21:34:02.698Z,9.50
2023-04-20T21:36:06.128Z,9.50
2023-04-20T21:38:09.012Z,9.50
2023-04-20T21:40:13.109Z,9.60
2023-04-20T21:42:16.236Z,9.60
2023-04-20T21:44:20.163Z,9.50
2023-04-20T21:46:24.754Z,9.60
2023-04-20T21:48:28.696Z,9.60
2023-04-20T21:50:43.612Z,9.60
2023-04-20T21:52:46.435Z,9.60
2023-04-20T21:54:49.531Z,9.60
2023-04-20T21:56:52.526Z,9.60
2023-04-20T21:58:58.479Z,9.50
2023-04-20T22:01:01.386Z,9.60
2023-04-20T22:03:04.472Z,9.60
2023-04-20T22:05:09.494Z,9.60
2023-04-20T22:07:16.713Z,9.60
2023-04-20T22:09:19.770Z,9.60
2023-04-20T22:11:25.478Z,9.60
2023-04-20T22:13:28.713Z,9.60
2023-04-20T22:15:34.217Z,9.60
2023-04-20T22:17:41.882Z,9.60
2023-04-20T22:19:44.897Z,9.60
2023-04-20T22:21:47.933Z,9.60
2023-04-20T22:23:56.303Z,9.60
2023-04-20T22:26:02.373Z,9.60
2023-04-20T22:28:08.264Z,9.60
2023-04-20T22:30:13.586Z,9.60
2023-04-20T22:32:16.711Z,9.60
2023-04-20T22:34:19.576Z,9.60
2023-04-20T22:36:22.427Z,9.60
2023-04-20T22:38:27.099Z,9.60
2023-04-20T22:40:31.419Z,9.60
2023-04-20T22:42:35.864Z,9.60
2023-04-20T22:44:41.600Z,9.50
2023-04-20T22:46:44.979Z,9.50
2023-04-20T22:48:48.946Z,9.50
2023-04-20T22:50:52.411Z,9.50
2023-04-20T22:52:55.599Z,9.50
2023-04-20T22:54:59.930Z,9.50
2023-04-20T22:57:04.350Z,9.50
2023-04-20T22:59:07.466Z,9.50
2023-04-20T23:01:10.661Z,9.50
2023-04-20T23:03:13.741Z,9.60
2023-04-20T23:05:20.145Z,9.60
2023-04-20T23:07:23.190Z,9.60
2023-04-20T23:09:28.365Z,9.60
2023-04-20T23:11:33.698Z,9.60
2023-04-20T23:13:41.459Z,9.60
2023-04-20T23:15:44.537Z,9.60
2023-04-20T23:17:50.746Z,9.60
2023-04-20T23:19:53.754Z,9.60
2023-04-20T23:21:56.614Z,9.60
2023-04-20T23:23:59.669Z,9.60
2023-04-20T23:26:02.543Z,9.60
2023-04-20T23:28:06.065Z,9.60
2023-04-20T23:30:11.980Z,9.50
2023-04-20T23:32:14.914Z,9.50
2023-04-20T23:34:19.010Z,9.50
2023-04-20T23:36:24.160Z,9.40
2023-04-20T23:38:27.168Z,9.40
2023-04-20T23:40:30.205Z,9.40
2023-04-20T23:42:33.116Z,9.40
2023-04-20T23:44:37.442Z,9.30
2023-04-20T23:46:46.323Z,9.30
2023-04-20T23:48:51.318Z,9.20
2023-04-20T23:50:55.782Z,9.20
2023-04-20T23:52:58.671Z,9.10
2023-04-20T23:55:01.534Z,9.10
2023-04-20T23:57:04.604Z,9.10
2023-04-20T23:59:07.553Z,9.10
